Putman, Connecticut
Current Conditions -  °F | °C
As of 3:52 PM on Tuesday 27 Jan 2015 (Local Time) from KIJD Reporting Station
Moderate Snow Moderate Snow  
Wind Chill:   Ceiling: 1100
Heat Index: 20°   Visibility: 0.5mi
Dew Point: 15°   Wind: 13mph
Humidity: 81%   Direction: 340°NNW
Pressure: 29.57"   Gusts: NA
Location:  41.91°N, 71.8739°W
Report Text: KIJD 272052Z AUTO 34011KT 1/2SM SN VV011 M07/M09 A2957 RMK AO2 SLP015 P0001 60001 T10671094 53006
Loading
Personal Weather Stations






























Interactive Weather Map New forecast layout! Learn more

10-Day Weather Forecast

Advertisements
Track Severe Weather on mobile